Time;durP1;ratioP1;P1;durP2;ratioP2;P2;SDS_P1;SDS_P2;PMS_P1;PMS_P2;Temp;Humidity;BMP_temperature;BMP_pressure;BME280_temperature;BME280_humidity;BME280_pressure;Samples;Min_cycle;Max_cycle;Signal;HPM_P1;HPM_P2
2022/04/11 00:00:11;;;;;;;2.67;1.42;;;;;;;7.91;89.01;99212.31;5082542;28;20036;-73
2022/04/11 00:02:37;;;;;;;4.05;1.58;;;;;;;7.90;88.20;99205.38;5079735;28;20051;-74
2022/04/11 00:05:02;;;;;;;2.83;1.70;;;;;;;7.98;89.09;99221.22;5079313;28;20349;-71
2022/04/11 00:07:28;;;;;;;2.45;1.52;;;;;;;8.04;88.81;99222.41;5078575;28;20345;-72
2022/04/11 00:09:53;;;;;;;4.90;2.08;;;;;;;8.34;86.89;99220.28;5079300;28;20357;-71
2022/04/11 00:12:19;;;;;;;1.80;1.55;;;;;;;8.36;86.67;99232.31;5079401;28;20029;-73
2022/04/11 00:14:44;;;;;;;1.70;1.60;;;;;;;8.20;87.44;99232.19;5081183;28;20065;-74
2022/04/11 00:17:09;;;;;;;1.90;1.70;;;;;;;8.23;87.42;99239.78;5080754;28;20036;-71
2022/04/11 00:19:35;;;;;;;2.35;2.00;;;;;;;8.12;87.51;99232.16;5079451;28;20036;-71
2022/04/11 00:22:00;;;;;;;2.50;1.67;;;;;;;8.26;86.51;99237.66;5082758;28;20082;-74
2022/04/11 00:24:26;;;;;;;4.97;1.70;;;;;;;8.30;86.49;99246.06;5080383;28;20093;-71
2022/04/11 00:26:51;;;;;;;2.33;1.50;;;;;;;8.23;87.00;99250.34;5081275;28;20151;-71
2022/04/11 00:29:16;;;;;;;3.05;2.10;;;;;;;8.32;86.17;99246.75;5080805;28;20044;-73
2022/04/11 00:31:43;;;;;;;2.95;2.00;;;;;;;8.12;87.87;99240.06;5078053;28;20249;-71
2022/04/11 00:34:08;;;;;;;2.83;2.25;;;;;;;8.02;87.66;99250.75;5079101;28;20043;-74
2022/04/11 00:36:33;;;;;;;3.20;2.28;;;;;;;8.07;88.09;99255.53;5079107;28;20040;-71
2022/04/11 00:38:59;;;;;;;2.53;1.90;;;;;;;8.11;87.28;99254.25;5081193;28;20095;-74
2022/04/11 00:41:24;;;;;;;2.25;2.00;;;;;;;7.85;88.00;99251.66;5080066;28;20129;-74
2022/04/11 00:43:50;;;;;;;3.17;2.08;;;;;;;7.87;89.00;99274.22;5078196;28;20052;-74
2022/04/11 00:46:15;;;;;;;2.75;2.10;;;;;;;8.04;89.26;99269.03;5078184;28;20028;-70
2022/04/11 00:48:41;;;;;;;3.55;2.03;;;;;;;8.14;87.88;99278.50;5078839;28;20111;-71
2022/04/11 00:51:14;;;;;;;3.17;2.13;;;;;;;8.14;87.63;99280.28;5077998;28;20073;-71
2022/04/11 00:53:42;;;;;;;4.77;2.20;;;;;;;8.11;88.65;99286.72;5075691;28;20032;-74
2022/04/11 00:56:11;;;;;;;2.53;2.30;;;;;;;8.12;88.38;99288.38;5078089;28;20485;-71
2022/04/11 00:58:39;;;;;;;2.33;1.98;;;;;;;8.02;88.41;99283.22;5077789;28;20044;-71
2022/04/11 01:01:05;;;;;;;2.33;2.00;;;;;;;7.91;87.95;99282.66;5075863;28;20043;-73
2022/04/11 01:03:32;;;;;;;3.20;1.90;;;;;;;7.96;87.55;99288.28;5078079;28;20040;-71
2022/04/11 01:05:58;;;;;;;2.10;1.67;;;;;;;7.79;88.16;99271.53;5077637;28;20070;-71
2022/04/11 01:08:23;;;;;;;3.42;2.38;;;;;;;7.80;88.61;99296.91;5079524;28;20040;-74
2022/04/11 01:10:51;;;;;;;3.20;1.90;;;;;;;8.07;87.82;99297.72;5079473;28;20029;-71
2022/04/11 01:13:16;;;;;;;2.10;1.90;;;;;;;8.12;86.54;99298.91;5080799;28;20032;-71
2022/04/11 01:16:12;;;;;;;2.28;1.88;;;;;;;7.96;87.89;99302.28;5078746;28;20065;-71
2022/04/11 01:18:38;;;;;;;2.00;1.80;;;;;;;7.89;88.16;99314.44;5077279;28;20261;-71
2022/04/11 01:21:06;;;;;;;2.17;1.90;;;;;;;8.03;86.68;99320.94;5079400;28;20036;-73
2022/04/11 01:23:32;;;;;;;2.33;2.00;;;;;;;7.92;87.38;99324.69;5081029;28;20257;-74
2022/04/11 01:25:57;;;;;;;4.93;1.98;;;;;;;7.96;87.48;99326.03;5078954;28;20029;-74
2022/04/11 01:28:23;;;;;;;3.92;2.17;;;;;;;8.08;88.43;99326.59;5078173;28;20214;-74
2022/04/11 01:30:54;;;;;;;2.30;1.88;;;;;;;8.06;87.32;99333.81;5077628;28;20032;-74
2022/04/11 01:33:28;;;;;;;4.15;2.10;;;;;;;7.99;88.17;99332.78;5078823;28;20127;-73
2022/04/11 01:35:53;;;;;;;2.20;1.98;;;;;;;8.07;87.75;99337.28;5078418;28;20039;-73
2022/04/11 01:38:19;;;;;;;2.75;2.10;;;;;;;8.07;88.18;99339.91;5077749;28;20033;-73
2022/04/11 01:40:52;;;;;;;3.30;2.33;;;;;;;7.92;87.68;99351.03;5078531;28;20028;-71
2022/04/11 01:43:18;;;;;;;2.50;1.90;;;;;;;7.82;88.28;99346.84;5078180;28;20036;-71
2022/04/11 01:45:44;;;;;;;3.17;2.40;;;;;;;7.87;88.11;99360.38;5075565;28;20056;-70
2022/04/11 01:48:10;;;;;;;3.28;2.33;;;;;;;7.65;87.35;99328.28;5078414;28;20099;-71
2022/04/11 01:50:35;;;;;;;3.75;2.40;;;;;;;7.88;89.04;99367.31;5078565;28;20364;-74
2022/04/11 01:53:12;;;;;;;3.03;2.20;;;;;;;7.80;88.76;99370.72;5077747;28;20054;-71
2022/04/11 01:55:37;;;;;;;3.35;3.03;;;;;;;8.02;88.97;99380.75;5075067;28;20289;-74
2022/04/11 01:58:04;;;;;;;2.67;2.38;;;;;;;7.84;89.13;99392.34;5078628;28;20031;-73
2022/04/11 02:00:30;;;;;;;3.33;2.67;;;;;;;7.87;89.71;99387.59;5078229;28;20317;-73
2022/04/11 02:02:55;;;;;;;4.15;2.80;;;;;;;7.95;90.13;99402.63;5082280;28;20055;-71
2022/04/11 02:05:21;;;;;;;3.78;2.80;;;;;;;7.88;89.89;99409.50;5078893;28;20055;-74
2022/04/11 02:07:47;;;;;;;3.10;2.63;;;;;;;8.01;89.98;99402.00;5081088;28;20135;-71
2022/04/11 02:10:12;;;;;;;3.05;2.47;;;;;;;7.88;90.31;99414.78;5081740;28;22117;-71
2022/04/11 02:12:39;;;;;;;5.70;3.22;;;;;;;7.86;90.16;99419.38;5081065;28;20047;-74
2022/04/11 02:15:06;;;;;;;4.25;3.10;;;;;;;7.76;90.52;99430.00;5078019;28;20028;-71
2022/04/11 02:17:31;;;;;;;7.70;3.67;;;;;;;7.93;90.20;99438.88;5081520;28;20039;-71
2022/04/11 02:19:57;;;;;;;4.72;3.22;;;;;;;8.08;89.39;99439.16;5080488;28;20084;-74
2022/04/11 02:22:22;;;;;;;4.88;2.97;;;;;;;7.98;89.43;99447.16;5082111;28;20087;-71
2022/04/11 02:24:48;;;;;;;4.22;3.25;;;;;;;8.18;90.42;99455.69;5080623;28;20051;-73
2022/04/11 02:27:14;;;;;;;5.75;3.00;;;;;;;8.02;90.96;99459.03;5080774;28;20038;-72
2022/04/11 02:29:39;;;;;;;4.82;2.92;;;;;;;8.15;90.85;99463.91;5081492;28;20081;-71
2022/04/11 02:32:05;;;;;;;4.78;3.03;;;;;;;8.18;91.21;99460.97;5080913;28;20036;-70
2022/04/11 02:34:31;;;;;;;4.18;3.30;;;;;;;8.38;89.95;99469.59;5081214;28;20090;-71
2022/04/11 02:36:56;;;;;;;5.22;3.05;;;;;;;8.46;89.65;99477.56;5080416;28;20041;-74
2022/04/11 02:39:22;;;;;;;4.63;3.47;;;;;;;8.60;88.00;99477.81;5080437;28;20032;-72
2022/04/11 02:41:47;;;;;;;2.55;2.33;;;;;;;8.61;87.06;99482.09;5080869;28;20044;-74
2022/04/11 02:44:13;;;;;;;3.08;2.58;;;;;;;8.83;86.58;99486.03;5080062;28;20028;-72
2022/04/11 02:46:39;;;;;;;3.75;2.88;;;;;;;9.07;86.49;99481.84;5077449;28;20334;-74
2022/04/11 02:49:04;;;;;;;3.08;2.25;;;;;;;9.22;85.08;99491.66;5081273;28;20084;-72
2022/04/11 02:51:29;;;;;;;3.53;2.20;;;;;;;9.28;84.84;99484.91;5080303;28;20066;-74
2022/04/11 02:53:55;;;;;;;3.75;2.90;;;;;;;9.46;84.83;99495.38;5083013;28;20043;-71
2022/04/11 02:56:20;;;;;;;6.15;3.00;;;;;;;9.60;82.75;99500.06;5082782;28;20039;-72
2022/04/11 02:58:46;;;;;;;3.75;2.97;;;;;;;9.67;82.84;99513.44;5079860;28;20055;-74
2022/04/11 03:01:11;;;;;;;6.72;3.08;;;;;;;9.48;82.76;99491.59;5077626;28;20040;-74
2022/04/11 03:03:38;;;;;;;4.10;3.15;;;;;;;9.57;83.18;99513.59;5080643;28;20049;-72
2022/04/11 03:06:03;;;;;;;5.18;3.30;;;;;;;9.51;84.09;99523.00;5079479;28;20083;-72
2022/04/11 03:08:29;;;;;;;4.93;3.30;;;;;;;9.52;83.59;99524.63;5080921;28;20440;-74
2022/04/11 03:10:54;;;;;;;6.32;3.83;;;;;;;9.44;84.19;99529.06;5079493;28;20436;-74
2022/04/11 03:13:20;;;;;;;4.80;3.22;;;;;;;9.54;82.55;99541.16;5079829;28;20032;-71
2022/04/11 03:15:46;;;;;;;3.78;2.83;;;;;;;9.48;83.29;99535.69;5080486;28;20294;-71
2022/04/11 03:18:11;;;;;;;4.13;3.25;;;;;;;9.56;83.81;99554.22;5082122;28;20268;-71
2022/04/11 03:20:36;;;;;;;6.32;3.35;;;;;;;9.45;83.95;99543.94;5080952;28;20382;-74
2022/04/11 03:23:02;;;;;;;6.28;2.83;;;;;;;9.60;83.92;99553.75;5077938;28;20093;-72
2022/04/11 03:25:27;;;;;;;6.85;3.47;;;;;;;9.44;84.14;99563.44;5080394;28;20088;-74
2022/04/11 03:27:53;;;;;;;4.25;2.30;;;;;;;9.27;83.81;99573.91;5077674;28;20096;-71
2022/04/11 03:30:18;;;;;;;4.10;2.28;;;;;;;9.29;84.08;99576.38;5079280;28;20091;-74
2022/04/11 03:32:44;;;;;;;5.00;2.85;;;;;;;9.10;84.89;99585.38;5080448;28;20036;-74
2022/04/11 03:35:09;;;;;;;4.35;3.00;;;;;;;9.29;85.19;99586.94;5079133;28;20036;-73
2022/04/11 03:37:35;;;;;;;5.32;2.97;;;;;;;9.05;85.59;99576.25;5076622;28;20251;-72
2022/04/11 03:40:01;;;;;;;5.60;3.00;;;;;;;9.24;84.67;99584.78;5079781;28;20032;-72
2022/04/11 03:42:27;;;;;;;5.75;2.92;;;;;;;9.19;85.63;99578.31;5079199;28;20282;-74
2022/04/11 03:44:52;;;;;;;5.22;2.80;;;;;;;9.37;84.86;99589.66;5079577;28;20249;-72
2022/04/11 03:47:18;;;;;;;6.35;2.75;;;;;;;9.55;83.52;99602.78;5081114;28;20041;-72
2022/04/11 03:49:43;;;;;;;5.85;3.00;;;;;;;9.56;83.62;99591.22;5081921;28;20099;-71
2022/04/11 03:52:10;;;;;;;4.70;2.50;;;;;;;9.61;83.68;99604.78;5077688;28;20218;-73
2022/04/11 03:54:35;;;;;;;7.43;3.80;;;;;;;9.49;83.51;99598.97;5079517;28;20036;-72
2022/04/11 03:57:01;;;;;;;4.88;2.97;;;;;;;9.53;83.70;99610.06;5078807;28;20059;-74
2022/04/11 03:59:27;;;;;;;6.57;2.78;;;;;;;9.58;84.16;99615.69;5079694;28;20380;-72
2022/04/11 04:01:52;;;;;;;4.00;2.38;;;;;;;9.59;83.48;99623.47;5078246;28;20337;-74
2022/04/11 04:04:17;;;;;;;4.82;2.50;;;;;;;9.66;83.28;99626.28;5078745;28;20221;-73
2022/04/11 04:06:43;;;;;;;4.45;3.33;;;;;;;9.74;82.53;99631.63;5079568;28;20100;-72
2022/04/11 04:09:08;;;;;;;4.30;3.75;;;;;;;9.75;82.65;99629.81;5078550;28;20047;-74
2022/04/11 04:11:34;;;;;;;4.90;4.00;;;;;;;9.65;82.64;99626.47;5077666;28;20025;-72
2022/04/11 04:13:59;;;;;;;4.82;3.92;;;;;;;9.81;83.05;99637.94;5081000;28;20036;-72
2022/04/11 04:16:25;;;;;;;7.20;4.25;;;;;;;9.91;83.13;99645.72;5080573;28;20239;-74
2022/04/11 04:18:50;;;;;;;5.20;2.90;;;;;;;9.90;82.66;99642.25;5079066;28;20044;-71
2022/04/11 04:21:18;;;;;;;5.78;2.90;;;;;;;9.90;82.90;99652.84;5079689;28;20037;-72
2022/04/11 04:23:44;;;;;;;6.05;2.35;;;;;;;9.73;83.33;99653.75;5076596;28;20024;-74
2022/04/11 04:26:10;;;;;;;4.25;2.15;;;;;;;9.53;84.94;99660.28;5078774;28;20029;-74
2022/04/11 04:28:35;;;;;;;4.78;2.92;;;;;;;9.52;85.45;99664.72;5079651;28;20056;-72
2022/04/11 04:31:01;;;;;;;3.78;2.67;;;;;;;9.47;86.14;99664.38;5077936;28;20095;-72
2022/04/11 04:33:30;;;;;;;4.25;3.00;;;;;;;9.55;85.77;99661.78;5079261;28;20074;-74
2022/04/11 04:35:56;;;;;;;5.57;3.30;;;;;;;9.48;86.20;99667.84;5078682;28;20061;-72
2022/04/11 04:38:21;;;;;;;4.85;3.67;;;;;;;9.35;85.48;99667.41;5079891;28;20028;-72
2022/04/11 04:40:47;;;;;;;4.85;2.88;;;;;;;9.25;86.82;99672.78;5076311;28;20116;-72
2022/04/11 04:43:12;;;;;;;6.57;3.30;;;;;;;9.45;86.05;99684.00;5079904;28;20037;-72
2022/04/11 04:45:37;;;;;;;8.20;4.38;;;;;;;9.47;86.54;99677.59;5080775;28;20117;-74
2022/04/11 04:48:05;;;;;;;7.13;2.90;;;;;;;9.42;86.24;99684.31;5079169;28;20127;-70
2022/04/11 04:50:30;;;;;;;4.95;3.17;;;;;;;9.34;85.85;99671.03;5077803;28;20337;-74
2022/04/11 04:52:56;;;;;;;6.38;3.85;;;;;;;9.31;85.44;99666.06;5079471;28;20036;-74
2022/04/11 04:55:22;;;;;;;9.38;4.28;;;;;;;9.36;86.24;99696.31;5077956;28;20503;-72
2022/04/11 04:57:48;;;;;;;4.82;3.35;;;;;;;9.32;87.06;99691.50;5078203;28;20032;-74
2022/04/11 05:00:14;;;;;;;5.90;3.50;;;;;;;9.42;86.25;99693.09;5080976;28;20032;-72
2022/04/11 05:02:39;;;;;;;5.65;3.28;;;;;;;9.34;87.08;99702.75;5079354;28;20056;-74
2022/04/11 05:05:09;;;;;;;6.05;3.08;;;;;;;9.28;87.34;99710.31;5077592;28;20028;-72
2022/04/11 05:07:35;;;;;;;5.15;2.50;;;;;;;9.39;87.27;99711.91;5079059;28;20032;-72
2022/04/11 05:10:02;;;;;;;6.30;2.80;;;;;;;9.43;86.81;99723.00;5075528;28;20037;-73
2022/04/11 05:12:27;;;;;;;5.15;3.10;;;;;;;9.17;88.90;99721.13;5076043;28;20036;-74
2022/04/11 05:14:52;;;;;;;5.28;3.15;;;;;;;9.32;87.66;99717.91;5079013;28;20091;-74
2022/04/11 05:17:18;;;;;;;3.65;2.45;;;;;;;9.29;88.38;99724.34;5077958;28;20543;-74
2022/04/11 05:19:43;;;;;;;5.55;3.30;;;;;;;9.29;87.86;99721.72;5078116;28;20326;-74
2022/04/11 05:22:09;;;;;;;10.18;2.80;;;;;;;9.17;86.00;99722.94;5078528;28;20110;-73
2022/04/11 05:24:34;;;;;;;3.05;2.28;;;;;;;9.10;84.73;99721.88;5077530;28;20422;-72
2022/04/11 05:26:59;;;;;;;3.53;2.00;;;;;;;9.09;84.66;99714.94;5078715;28;20107;-71
2022/04/11 05:29:25;;;;;;;1.42;1.27;;;;;;;9.22;82.77;99715.38;5077728;28;20095;-73
2022/04/11 05:31:50;;;;;;;1.30;1.00;;;;;;;9.25;82.17;99712.44;5078815;28;20092;-72
2022/04/11 05:34:16;;;;;;;1.55;1.45;;;;;;;9.32;81.21;99713.47;5077916;28;20033;-74
2022/04/11 05:36:41;;;;;;;2.35;1.10;;;;;;;9.33;81.09;99720.41;5081342;28;20078;-72
2022/04/11 05:39:06;;;;;;;3.35;1.13;;;;;;;9.19;81.64;99729.72;5082275;28;20092;-74
2022/04/11 05:41:32;;;;;;;2.58;1.25;;;;;;;9.28;82.08;99718.22;5081295;28;20078;-72
2022/04/11 05:43:57;;;;;;;1.80;1.00;;;;;;;9.38;82.56;99735.84;5084094;28;20040;-74
2022/04/11 05:46:23;;;;;;;1.33;0.90;;;;;;;9.29;81.24;99732.28;5083899;28;20096;-71
2022/04/11 05:48:48;;;;;;;1.40;0.90;;;;;;;9.27;80.71;99732.44;5082571;28;20075;-74
2022/04/11 05:51:14;;;;;;;1.35;0.80;;;;;;;9.41;80.98;99728.44;5084452;28;20047;-72
2022/04/11 05:53:40;;;;;;;1.38;0.80;;;;;;;9.20;80.18;99731.38;5083050;28;20096;-74
2022/04/11 05:56:05;;;;;;;0.88;0.60;;;;;;;9.14;80.71;99728.53;5080951;28;20040;-74
2022/04/11 05:58:31;;;;;;;1.63;0.60;;;;;;;9.06;79.54;99724.00;5081307;28;20048;-73
2022/04/11 06:00:56;;;;;;;0.90;0.50;;;;;;;8.97;79.61;99719.63;5082002;28;20116;-72
2022/04/11 06:03:21;;;;;;;1.15;0.75;;;;;;;8.99;80.40;99724.78;5081150;28;20085;-71
2022/04/11 06:05:47;;;;;;;1.20;0.70;;;;;;;9.18;80.73;99721.94;5081044;28;20070;-73
2022/04/11 06:08:12;;;;;;;0.82;0.50;;;;;;;9.09;80.15;99723.69;5080251;28;20024;-74
2022/04/11 06:10:38;;;;;;;3.47;0.55;;;;;;;9.16;80.65;99713.34;5080870;28;20119;-74
2022/04/11 06:13:04;;;;;;;2.40;0.47;;;;;;;8.74;80.64;99727.19;5081944;28;20051;-71
2022/04/11 06:15:29;;;;;;;0.40;0.40;;;;;;;8.75;80.09;99720.94;5080824;28;20036;-71
2022/04/11 06:17:54;;;;;;;2.15;0.45;;;;;;;8.57;81.05;99733.28;5083163;28;20059;-74
2022/04/11 06:20:20;;;;;;;0.63;0.50;;;;;;;8.75;81.13;99730.66;5081808;28;20043;-71
2022/04/11 06:22:46;;;;;;;0.95;0.30;;;;;;;9.03;81.51;99723.47;5081441;28;20345;-71
2022/04/11 06:25:12;;;;;;;1.85;0.30;;;;;;;9.46;80.17;99735.88;5080212;28;20037;-74
2022/04/11 06:27:38;;;;;;;1.33;0.30;;;;;;;9.85;77.76;99736.28;5080369;28;20027;-71
2022/04/11 06:30:04;;;;;;;0.43;0.40;;;;;;;9.65;78.63;99729.56;5076824;28;20040;-71
2022/04/11 06:32:31;;;;;;;0.77;0.63;;;;;;;9.58;78.14;99750.50;5079683;28;20131;-71
2022/04/11 06:34:57;;;;;;;0.95;0.50;;;;;;;9.46;77.00;99757.88;5079571;28;20264;-74
2022/04/11 06:37:24;;;;;;;0.63;0.45;;;;;;;9.60;77.69;99759.94;5078851;28;20354;-72
2022/04/11 06:39:50;;;;;;;0.65;0.50;;;;;;;9.33;78.26;99759.22;5079375;28;20230;-74
2022/04/11 06:42:16;;;;;;;1.75;0.50;;;;;;;9.24;78.92;99763.59;5079710;28;20059;-72
2022/04/11 06:44:42;;;;;;;1.42;0.60;;;;;;;9.28;79.45;99767.59;5080266;28;20040;-74
2022/04/11 06:47:08;;;;;;;0.50;0.50;;;;;;;9.44;79.27;99766.94;5078982;28;20125;-74
2022/04/11 06:49:38;;;;;;;2.47;1.10;;;;;;;9.49;78.28;99777.88;5079234;28;20039;-74
2022/04/11 06:52:07;;;;;;;1.17;0.93;;;;;;;9.70;79.10;99785.44;5079709;28;20187;-72
2022/04/11 06:54:32;;;;;;;0.30;0.30;;;;;;;9.64;79.67;99781.59;5079657;28;20055;-71
2022/04/11 06:56:58;;;;;;;1.48;0.40;;;;;;;9.67;76.45;99786.59;5077854;28;20016;-71
2022/04/11 06:59:24;;;;;;;0.30;0.30;;;;;;;9.81;77.21;99799.25;5079165;28;20044;-71
2022/04/11 07:01:51;;;;;;;0.57;0.30;;;;;;;9.79;74.08;99782.69;5078520;28;20033;-72
2022/04/11 07:04:18;;;;;;;0.30;0.30;;;;;;;9.77;75.28;99774.09;5078670;28;20048;-74
2022/04/11 07:06:43;;;;;;;0.30;0.30;;;;;;;10.08;75.66;99813.28;5079926;28;20278;-72
2022/04/11 07:09:08;;;;;;;0.40;0.30;;;;;;;9.85;74.12;99810.34;5080657;28;20107;-72
2022/04/11 07:11:34;;;;;;;0.75;0.40;;;;;;;9.97;72.60;99816.19;5080444;28;20099;-72
2022/04/11 07:13:59;;;;;;;2.42;0.60;;;;;;;10.05;72.71;99814.41;5082758;28;20048;-72
2022/04/11 07:16:25;;;;;;;0.75;0.47;;;;;;;10.03;75.02;99812.91;5082858;28;20024;-74
2022/04/11 07:18:51;;;;;;;0.77;0.70;;;;;;;10.19;75.44;99813.00;5082796;28;20031;-74
2022/04/11 07:21:17;;;;;;;1.02;0.60;;;;;;;10.27;75.09;99826.31;5082877;28;20035;-72
2022/04/11 07:23:43;;;;;;;1.52;0.93;;;;;;;10.14;73.35;99816.13;5082831;28;20032;-71
2022/04/11 07:26:08;;;;;;;3.45;1.50;;;;;;;9.93;74.41;99829.72;5082511;28;20146;-74
2022/04/11 07:28:34;;;;;;;1.50;0.52;;;;;;;9.92;73.14;99827.25;5082036;28;20220;-72
2022/04/11 07:30:59;;;;;;;0.93;0.70;;;;;;;9.89;73.23;99838.97;5081837;28;20071;-74
2022/04/11 07:33:25;;;;;;;0.52;0.50;;;;;;;9.66;72.47;99837.81;5080506;28;20033;-74
2022/04/11 07:35:50;;;;;;;1.85;0.40;;;;;;;9.36;72.92;99815.25;5081568;28;20249;-71
2022/04/11 07:38:16;;;;;;;0.40;0.40;;;;;;;9.49;73.92;99850.06;5080588;28;20020;-71
2022/04/11 07:40:41;;;;;;;0.70;0.70;;;;;;;9.70;74.15;99841.81;5081524;28;20095;-72
2022/04/11 07:43:06;;;;;;;0.85;0.57;;;;;;;9.42;72.13;99800.59;5081340;28;20028;-74
2022/04/11 07:45:32;;;;;;;0.65;0.60;;;;;;;9.59;72.98;99852.63;5081593;28;20318;-74
2022/04/11 07:47:57;;;;;;;1.00;0.47;;;;;;;9.66;72.82;99863.41;5081664;28;20068;-72
2022/04/11 07:50:23;;;;;;;0.98;0.65;;;;;;;9.65;73.22;99854.66;5081355;28;20274;-71
2022/04/11 07:52:48;;;;;;;1.27;0.75;;;;;;;9.64;72.96;99868.03;5080211;28;20027;-74
2022/04/11 07:55:15;;;;;;;0.70;0.70;;;;;;;9.50;73.87;99872.03;5081341;28;20420;-71
2022/04/11 07:57:41;;;;;;;0.82;0.77;;;;;;;9.51;73.96;99871.88;5080990;28;20099;-71
2022/04/11 08:00:08;;;;;;;1.20;0.60;;;;;;;9.59;74.11;99873.78;5080895;28;20066;-71
2022/04/11 08:02:34;;;;;;;1.05;0.70;;;;;;;9.54;74.15;99887.44;5080296;28;20322;-74
2022/04/11 08:05:01;;;;;;;0.90;0.88;;;;;;;9.61;74.53;99890.31;5078093;28;20024;-72
2022/04/11 08:07:29;;;;;;;3.38;0.93;;;;;;;9.75;74.62;99886.28;5077317;28;20028;-74
2022/04/11 08:09:55;;;;;;;1.33;0.90;;;;;;;9.86;73.63;99896.63;5076827;28;20040;-71
2022/04/11 08:12:20;;;;;;;2.25;0.80;;;;;;;9.86;73.48;99886.88;5077957;28;20053;-74
2022/04/11 08:14:46;;;;;;;1.25;0.90;;;;;;;9.84;71.41;99895.94;5076511;28;20073;-73
2022/04/11 08:17:12;;;;;;;1.88;1.20;;;;;;;9.78;71.80;99902.69;5078074;28;20036;-71
2022/04/11 08:19:38;;;;;;;3.47;1.50;;;;;;;9.77;72.19;99910.78;5076580;28;20326;-71
2022/04/11 08:22:03;;;;;;;5.13;1.30;;;;;;;9.73;71.02;99902.31;5076973;28;20028;-71
2022/04/11 08:24:29;;;;;;;1.40;0.90;;;;;;;9.75;71.46;99910.09;5077585;28;20273;-74
2022/04/11 08:26:54;;;;;;;2.25;1.52;;;;;;;9.89;69.26;99906.91;5075559;28;20024;-74
2022/04/11 08:29:20;;;;;;;1.13;0.60;;;;;;;9.57;69.16;99910.94;5077004;28;20048;-70
2022/04/11 08:31:45;;;;;;;0.75;0.60;;;;;;;9.85;69.00;99918.78;5076126;28;20031;-73
2022/04/11 08:34:11;;;;;;;5.63;0.98;;;;;;;9.93;67.79;99908.25;5076528;28;20090;-71
2022/04/11 08:36:36;;;;;;;0.57;0.57;;;;;;;9.98;66.99;99907.78;5076820;28;20039;-71
2022/04/11 08:39:03;;;;;;;1.02;0.80;;;;;;;10.16;63.91;99927.09;5078078;28;20037;-73
2022/04/11 08:41:33;;;;;;;1.95;0.60;;;;;;;10.32;63.77;99927.25;5075486;28;20215;-73
2022/04/11 08:44:01;;;;;;;2.08;0.45;;;;;;;10.62;63.10;99931.25;5077526;28;20052;-72
2022/04/11 08:46:29;;;;;;;0.55;0.55;;;;;;;10.66;62.31;99929.94;5077192;28;20100;-71
2022/04/11 08:48:54;;;;;;;1.48;0.70;;;;;;;10.71;62.37;99932.94;5076974;28;20036;-71
2022/04/11 08:51:20;;;;;;;0.65;0.65;;;;;;;10.68;62.62;99943.03;5078105;28;20036;-72
2022/04/11 08:53:46;;;;;;;0.50;0.50;;;;;;;10.76;60.71;99943.06;5077693;28;20051;-73
2022/04/11 08:56:12;;;;;;;0.70;0.70;;;;;;;10.97;61.97;99943.50;5077065;28;20032;-74
2022/04/11 08:58:37;;;;;;;0.50;0.50;;;;;;;11.30;62.24;99920.56;5078266;28;20032;-71
2022/04/11 09:01:03;;;;;;;1.10;0.50;;;;;;;11.51;59.03;99950.13;5075367;28;20028;-72
2022/04/11 09:03:28;;;;;;;0.80;0.77;;;;;;;11.71;57.82;99949.84;5075417;28;20346;-73
2022/04/11 09:06:04;;;;;;;1.48;0.85;;;;;;;11.73;55.57;99958.47;5076525;28;20032;-74
2022/04/11 09:08:40;;;;;;;2.05;1.08;;;;;;;11.87;56.11;99955.19;5077902;28;20037;-71
2022/04/11 09:11:06;;;;;;;1.15;0.73;;;;;;;11.88;56.76;99953.38;5080414;28;20055;-72
2022/04/11 09:13:51;;;;;;;1.98;0.52;;;;;;;11.57;59.56;99959.25;5082109;28;20042;-74
2022/04/11 09:16:18;;;;;;;2.00;0.88;;;;;;;11.34;59.94;99955.53;5082825;28;20199;-74
2022/04/11 09:18:48;;;;;;;0.68;0.68;;;;;;;11.24;58.04;99957.50;5084983;28;20052;-71
2022/04/11 09:21:14;;;;;;;1.70;0.80;;;;;;;11.22;59.67;99967.44;5084881;28;20036;-71
2022/04/11 09:23:39;;;;;;;0.63;0.60;;;;;;;10.80;59.61;99968.25;5085086;28;20334;-74
2022/04/11 09:26:23;;;;;;;1.80;1.05;;;;;;;10.91;61.04;99980.38;5084878;28;20322;-74
2022/04/11 09:29:03;;;;;;;1.38;1.10;;;;;;;10.90;61.46;99971.63;5084939;28;20047;-71
2022/04/11 09:31:32;;;;;;;1.85;1.00;;;;;;;10.79;59.81;99983.31;5084247;28;20024;-74
2022/04/11 09:34:19;;;;;;;3.83;1.38;;;;;;;10.76;60.34;99980.97;5083696;28;20040;-71
2022/04/11 09:36:55;;;;;;;1.55;1.27;;;;;;;10.80;63.22;99984.16;5081687;28;20064;-72
2022/04/11 09:39:26;;;;;;;5.13;1.38;;;;;;;10.96;60.94;99996.63;5084561;28;20322;-74
2022/04/11 09:41:52;;;;;;;1.85;1.20;;;;;;;11.09;60.36;99997.03;5084587;28;20265;-72
2022/04/11 09:44:25;;;;;;;2.97;1.42;;;;;;;11.28;58.76;100002.06;5084445;28;20230;-74
2022/04/11 09:46:53;;;;;;;4.38;1.73;;;;;;;11.43;62.32;100003.13;5083419;28;20107;-74
2022/04/11 09:49:19;;;;;;;2.42;1.50;;;;;;;11.34;59.98;100003.25;5084555;28;20044;-74
2022/04/11 09:52:13;;;;;;;1.52;1.13;;;;;;;11.18;59.23;100010.16;5084661;28;20032;-74
2022/04/11 09:54:43;;;;;;;1.65;1.17;;;;;;;11.02;57.56;100014.56;5083857;28;20315;-74
2022/04/11 09:57:10;;;;;;;1.52;1.42;;;;;;;11.07;59.68;100017.56;5084743;28;20044;-74
2022/04/11 09:59:36;;;;;;;2.00;1.80;;;;;;;11.05;60.92;100024.84;5084250;28;20082;-72
2022/04/11 10:02:02;;;;;;;2.47;1.60;;;;;;;11.18;61.36;100033.19;5084405;28;20438;-74
2022/04/11 10:04:28;;;;;;;4.78;2.30;;;;;;;11.07;60.61;100036.09;5084126;28;20099;-72
2022/04/11 10:06:55;;;;;;;3.30;2.67;;;;;;;10.94;58.30;100012.69;5084316;28;20021;-75
2022/04/11 10:09:23;;;;;;;6.50;1.98;;;;;;;10.90;58.44;100031.72;5084098;28;20032;-72
2022/04/11 10:11:53;;;;;;;1.70;1.52;;;;;;;10.79;56.50;100030.16;5084086;28;20021;-74
2022/04/11 10:14:26;;;;;;;2.28;1.77;;;;;;;10.78;58.88;100013.44;5083940;28;20032;-74
2022/04/11 10:16:56;;;;;;;2.00;1.80;;;;;;;11.28;59.09;100046.31;5082896;28;20322;-74
2022/04/11 10:19:30;;;;;;;6.70;3.60;;;;;;;10.90;58.59;100034.38;5084070;28;20099;-74
2022/04/11 10:22:00;;;;;;;7.28;3.92;;;;;;;11.00;58.46;100049.16;5083232;28;20040;-73
2022/04/11 10:24:33;;;;;;;3.38;1.90;;;;;;;10.66;59.25;100040.34;5084063;28;20029;-74
2022/04/11 10:27:25;;;;;;;3.58;2.35;;;;;;;10.85;59.53;100053.38;5084120;28;20310;-71
2022/04/11 10:29:53;;;;;;;3.03;2.00;;;;;;;10.91;59.77;100057.22;5075851;28;20041;-74
2022/04/11 10:32:24;;;;;;;5.10;3.08;;;;;;;11.05;59.17;100057.47;5080384;28;20234;-71
2022/04/11 10:35:02;;;;;;;12.10;5.57;;;;;;;10.96;60.22;100057.56;5079320;28;20043;-71
2022/04/11 10:37:39;;;;;;;10.20;3.50;;;;;;;11.42;59.89;100062.44;5080091;28;20063;-74
2022/04/11 10:40:28;;;;;;;4.78;3.10;;;;;;;11.53;58.50;100058.72;5078401;28;20029;-72
2022/04/11 10:43:00;;;;;;;4.78;2.60;;;;;;;11.74;59.74;100055.63;5073067;28;20052;-74
2022/04/11 10:45:35;;;;;;;2.75;1.88;;;;;;;11.46;58.07;100021.38;5080114;28;20021;-72
2022/04/11 10:48:02;;;;;;;2.08;1.63;;;;;;;11.80;56.59;100045.22;5081573;28;20060;-72
2022/04/11 10:50:35;;;;;;;4.97;2.00;;;;;;;12.09;56.29;100052.72;5080019;28;20036;-72
2022/04/11 10:53:27;;;;;;;2.42;1.77;;;;;;;12.21;55.29;100047.09;5080406;28;20056;-72
2022/04/11 10:56:10;;;;;;;2.28;1.85;;;;;;;12.11;52.70;100045.44;5079619;28;20052;-74
2022/04/11 10:58:50;;;;;;;2.90;2.07;;;;;;;12.11;52.70;100036.63;5078825;28;20024;-72
2022/04/11 11:01:49;;;;;;;3.53;2.42;;;;;;;12.23;50.12;100040.63;5078820;28;20503;-72
2022/04/11 11:04:20;;;;;;;2.47;1.80;;;;;;;12.35;50.44;100046.44;5077889;28;20161;-74
2022/04/11 11:06:45;;;;;;;3.10;2.30;;;;;;;12.30;51.54;100038.97;5079108;28;20039;-72
2022/04/11 11:09:16;;;;;;;3.47;2.25;;;;;;;12.65;52.74;100047.63;5079689;28;20040;-72
2022/04/11 11:11:42;;;;;;;3.55;2.28;;;;;;;12.90;50.15;100037.78;5078820;28;20047;-71
2022/04/11 11:14:42;;;;;;;2.83;2.10;;;;;;;13.17;47.02;100031.25;5079771;28;20040;-74
2022/04/11 11:17:07;;;;;;;3.63;2.15;;;;;;;13.17;50.15;100032.06;5078391;28;20074;-72
2022/04/11 11:20:06;;;;;;;2.90;2.17;;;;;;;12.96;49.73;100029.13;5079466;28;20238;-74
2022/04/11 11:22:52;;;;;;;3.70;2.13;;;;;;;13.34;49.89;100032.84;5077627;28;20028;-72
2022/04/11 11:25:18;;;;;;;31.85;4.60;;;;;;;13.22;51.24;100028.91;5078314;28;20055;-74
2022/04/11 11:27:45;;;;;;;5.82;2.20;;;;;;;13.10;50.45;100031.06;5080104;28;20028;-72
2022/04/11 11:30:13;;;;;;;2.95;2.03;;;;;;;13.08;48.20;100025.09;5079369;28;20203;-74
2022/04/11 11:32:42;;;;;;;3.25;2.20;;;;;;;13.30;48.70;100018.22;5077964;28;20083;-74
2022/04/11 11:35:09;;;;;;;3.30;2.00;;;;;;;13.57;48.50;100017.78;5077587;28;20330;-72
2022/04/11 11:37:35;;;;;;;3.92;2.10;;;;;;;13.55;49.46;100006.50;5079502;28;20314;-74
2022/04/11 11:40:02;;;;;;;2.97;1.90;;;;;;;13.82;49.36;100001.69;5078115;28;20047;-72